Terminal Aerodrome Forecast
Issued by NWS

Home | Current Version | Previous Version | Text Only | Print | Product List | Glossary Off
Versions: 1 2 3 4 5 6 7 8 9 10 11 12 13 14 15 16

000
FTUS43 KBIS 202300
TAFMOT
TAF
KMOT 202320Z 2100/2124 28020G28KT P6SM OVC250
     FM210200 27012KT P6SM FEW250
     FM211100 29014KT P6SM BKN040
     FM211500 31014KT P6SM BKN250=

USA.gov is the U.S. government's official web portal to all federal, state and local government web resources and services.